Time;durP1;ratioP1;P1;durP2;ratioP2;P2;SDS_P1;SDS_P2;PMS_P1;PMS_P2;Temp;Humidity;BMP_temperature;BMP_pressure;BME280_temperature;BME280_humidity;BME280_pressure;Samples;Min_cycle;Max_cycle;Signal;HPM_P1;HPM_P2
2022/04/21 00:00:36;;;;;;;6.82;4.30;;;6.60;66.90;;;;;;5101170;28;20108;-80
2022/04/21 00:03:03;;;;;;;6.15;4.63;;;6.50;67.10;;;;;;5103344;28;20024;-79
2022/04/21 00:05:28;;;;;;;4.90;4.03;;;6.50;67.30;;;;;;5105707;28;20028;-79
2022/04/21 00:07:54;;;;;;;7.80;3.72;;;6.50;68.20;;;;;;5108505;28;20140;-79
2022/04/21 00:10:21;;;;;;;6.45;3.58;;;6.50;67.70;;;;;;5106527;28;20028;-79
2022/04/21 00:12:47;;;;;;;8.02;4.20;;;6.40;67.80;;;;;;5106348;28;20025;-78
2022/04/21 00:15:13;;;;;;;7.63;3.83;;;6.40;67.80;;;;;;5102770;28;20016;-76
2022/04/21 00:17:39;;;;;;;5.18;4.00;;;6.40;67.70;;;;;;5098168;28;20028;-80
2022/04/21 00:20:06;;;;;;;5.97;4.28;;;6.40;67.90;;;;;;5098424;28;20026;-78
2022/04/21 00:25:16;;;;;;;9.50;4.97;;;6.30;68.50;;;;;;5098799;28;20046;-78
2022/04/21 00:27:44;;;;;;;5.13;4.03;;;6.30;68.20;;;;;;5097144;28;20099;-77
2022/04/21 00:30:11;;;;;;;8.27;5.00;;;6.20;67.70;;;;;;5099364;28;20482;-78
2022/04/21 00:32:39;;;;;;;7.15;4.63;;;6.20;67.90;;;;;;5099181;28;20023;-79
2022/04/21 00:35:08;;;;;;;8.15;4.75;;;6.10;68.20;;;;;;5097414;28;20123;-79
2022/04/21 00:37:42;;;;;;;5.10;3.58;;;6.00;68.40;;;;;;5100157;28;20027;-79
2022/04/21 00:40:09;;;;;;;7.40;4.95;;;6.00;68.70;;;;;;5104622;28;20024;-78
2022/04/21 00:42:34;;;;;;;7.32;4.55;;;5.90;69.10;;;;;;5104083;28;20032;-81
2022/04/21 00:45:00;;;;;;;6.22;4.63;;;5.90;69.50;;;;;;5097346;28;20063;-79
2022/04/21 00:47:26;;;;;;;6.57;4.72;;;5.90;69.70;;;;;;5101544;28;20050;-78
2022/04/21 00:49:52;;;;;;;5.65;3.97;;;5.90;69.80;;;;;;5106367;28;20032;-78
2022/04/21 00:52:19;;;;;;;4.50;3.30;;;5.90;70.10;;;;;;5101961;28;20184;-78
2022/04/21 00:54:46;;;;;;;5.95;3.50;;;5.90;70.20;;;;;;5100015;28;20134;-77
2022/04/21 00:57:11;;;;;;;4.53;3.50;;;5.90;70.20;;;;;;5100035;28;20027;-80
2022/04/21 00:59:37;;;;;;;4.20;2.97;;;5.90;70.30;;;;;;5082491;28;20027;-80
2022/04/21 01:04:49;;;;;;;4.18;2.92;;;6.00;70.20;;;;;;5100906;28;20554;-77
2022/04/21 01:07:15;;;;;;;3.72;2.92;;;6.00;70.30;;;;;;5099701;28;20024;-80
2022/04/21 01:09:41;;;;;;;4.95;3.30;;;6.00;70.30;;;;;;5099958;28;20024;-79
2022/04/21 01:12:13;;;;;;;6.53;4.28;;;6.00;70.30;;;;;;5100247;28;20023;-79
2022/04/21 01:14:39;;;;;;;9.95;5.03;;;6.00;70.60;;;;;;5100242;28;20020;-79
2022/04/21 01:17:09;;;;;;;8.13;5.10;;;6.00;71.00;;;;;;5100792;28;20020;-79
2022/04/21 01:19:35;;;;;;;7.45;4.55;;;6.00;71.30;;;;;;5081617;28;20127;-78
2022/04/21 01:22:01;;;;;;;5.53;3.92;;;5.90;71.30;;;;;;5100324;28;20107;-80
2022/04/21 01:24:27;;;;;;;6.85;4.22;;;5.90;71.50;;;;;;5100254;28;20038;-81
2022/04/21 01:26:54;;;;;;;4.47;3.70;;;5.90;71.60;;;;;;5092757;28;20051;-80
2022/04/21 01:29:20;;;;;;;6.20;4.18;;;5.90;71.70;;;;;;5099500;28;20036;-79
2022/04/21 01:31:46;;;;;;;6.40;4.60;;;5.90;71.60;;;;;;5099709;28;20152;-79
2022/04/21 01:34:11;;;;;;;7.60;5.03;;;5.90;71.50;;;;;;5105915;28;20020;-80
2022/04/21 01:41:08;;;;;;;6.78;4.80;;;5.90;71.60;;;;;;5100664;28;20027;-79
2022/04/21 01:42:16;;;;;;;8.10;5.22;;;5.80;71.90;;;;;;5100123;28;20468;-79
2022/04/21 01:44:42;;;;;;;7.60;4.60;;;5.80;72.10;;;;;;5100330;28;20051;-80
2022/04/21 01:47:08;;;;;;;6.47;4.97;;;5.70;72.30;;;;;;5099253;28;20039;-80
2022/04/21 01:49:34;;;;;;;7.63;4.50;;;5.70;72.60;;;;;;5099446;28;20020;-80
2022/04/21 01:52:00;;;;;;;6.90;4.35;;;5.70;72.90;;;;;;5098244;28;20432;-79
2022/04/21 01:54:25;;;;;;;6.03;4.25;;;5.60;73.10;;;;;;5099827;28;20059;-79
2022/04/21 01:56:51;;;;;;;5.75;4.10;;;5.60;73.20;;;;;;5103287;28;20024;-79
2022/04/21 01:59:17;;;;;;;5.28;4.38;;;5.60;73.20;;;;;;5101943;28;20025;-79
2022/04/21 02:01:42;;;;;;;4.88;3.97;;;5.60;73.60;;;;;;5081844;28;20032;-79
2022/04/21 02:04:08;;;;;;;6.47;4.85;;;5.50;73.80;;;;;;5100673;28;20024;-80
2022/04/21 02:06:34;;;;;;;6.93;4.93;;;5.50;74.20;;;;;;5103417;28;20020;-78
2022/04/21 02:08:59;;;;;;;6.78;4.65;;;5.50;74.50;;;;;;5102985;28;20028;-78
2022/04/21 02:11:25;;;;;;;7.95;4.88;;;5.50;74.90;;;;;;5105727;28;20012;-79
2022/04/21 02:13:52;;;;;;;6.63;4.60;;;5.40;75.20;;;;;;5104111;28;20438;-80
2022/04/21 02:16:18;;;;;;;6.43;4.65;;;5.40;75.50;;;;;;5103811;28;20072;-79
2022/04/21 02:18:44;;;;;;;7.03;4.57;;;5.40;75.80;;;;;;5102754;28;20027;-79
2022/04/21 02:21:09;;;;;;;5.20;4.05;;;5.30;75.90;;;;;;5104526;28;20044;-79
2022/04/21 02:23:35;;;;;;;6.60;4.40;;;5.30;76.00;;;;;;5110439;28;20055;-78
2022/04/21 02:26:01;;;;;;;4.20;3.38;;;5.30;76.10;;;;;;5111865;28;20028;-79
2022/04/21 02:28:26;;;;;;;6.82;4.40;;;5.30;76.20;;;;;;5111626;28;20077;-79
2022/04/21 02:30:52;;;;;;;6.65;4.63;;;5.30;76.30;;;;;;5112555;28;20048;-79
2022/04/21 02:33:18;;;;;;;7.97;5.55;;;5.30;76.30;;;;;;5111010;28;20035;-78
2022/04/21 02:35:45;;;;;;;8.77;5.15;;;5.30;76.50;;;;;;5104167;28;20016;-79
2022/04/21 02:38:10;;;;;;;9.60;5.85;;;5.30;76.70;;;;;;5099273;28;20035;-78
2022/04/21 02:40:36;;;;;;;7.60;5.55;;;5.20;76.50;;;;;;5100013;28;20020;-80
2022/04/21 02:43:02;;;;;;;7.75;5.40;;;5.20;76.10;;;;;;5102350;28;20024;-79
2022/04/21 02:45:27;;;;;;;7.13;4.60;;;5.10;76.20;;;;;;5102794;28;20043;-79
2022/04/21 02:47:53;;;;;;;5.57;4.15;;;5.10;76.40;;;;;;5106356;28;20025;-77
2022/04/21 02:50:19;;;;;;;5.88;3.90;;;5.10;76.40;;;;;;5107265;28;20039;-77
2022/04/21 02:52:47;;;;;;;5.82;3.95;;;5.10;76.50;;;;;;5100509;28;20036;-79
2022/04/21 02:57:58;;;;;;;5.85;4.38;;;5.10;77.00;;;;;;5104197;28;20039;-78
2022/04/21 03:00:24;;;;;;;7.80;5.35;;;5.10;77.10;;;;;;5105079;28;20038;-79
2022/04/21 03:02:50;;;;;;;6.72;4.65;;;5.10;77.30;;;;;;5078853;28;20024;-78
2022/04/21 03:05:16;;;;;;;6.07;4.18;;;5.10;77.40;;;;;;5099169;28;20116;-78
2022/04/21 03:07:42;;;;;;;6.55;4.30;;;5.10;77.60;;;;;;5102432;28;20024;-79
2022/04/21 03:10:09;;;;;;;6.03;4.32;;;5.10;77.60;;;;;;5084315;28;20025;-79
2022/04/21 03:12:34;;;;;;;5.32;4.13;;;5.10;77.60;;;;;;5103426;28;20047;-78
2022/04/21 03:15:01;;;;;;;5.55;4.15;;;5.10;77.80;;;;;;5102498;28;20016;-80
2022/04/21 03:17:29;;;;;;;5.45;4.03;;;5.00;78.10;;;;;;5097339;28;20431;-79
2022/04/21 03:19:54;;;;;;;5.07;3.65;;;5.00;78.40;;;;;;5078443;28;20059;-79
2022/04/21 03:25:06;;;;;;;6.35;4.18;;;5.00;79.00;;;;;;5100569;28;20139;-79
2022/04/21 03:27:33;;;;;;;7.18;4.68;;;5.00;79.20;;;;;;5098509;28;20485;-79
2022/04/21 03:30:05;;;;;;;7.43;5.50;;;5.00;79.50;;;;;;5097435;28;20369;-78
2022/04/21 03:32:31;;;;;;;;;;;4.90;79.80;;;;;;5101798;28;20020;-79
2022/04/21 03:34:59;;;;;;;6.45;4.53;;;4.90;80.20;;;;;;5102846;28;20008;-79
2022/04/21 03:37:24;;;;;;;6.18;3.80;;;4.90;80.40;;;;;;5101155;28;20042;-79
2022/04/21 03:39:50;;;;;;;5.43;3.90;;;4.90;80.80;;;;;;5101810;28;20146;-79
2022/04/21 03:42:24;;;;;;;4.90;3.65;;;4.90;80.90;;;;;;5100804;28;20087;-78
2022/04/21 03:44:51;;;;;;;5.28;4.03;;;5.00;81.00;;;;;;5098956;28;20040;-79
2022/04/21 03:47:17;;;;;;;6.78;4.70;;;5.00;80.90;;;;;;5104129;28;20524;-77
2022/04/21 03:49:43;;;;;;;11.90;5.53;;;5.00;80.70;;;;;;5101333;28;20024;-79
2022/04/21 03:52:12;;;;;;;10.80;6.47;;;4.90;80.40;;;;;;5104194;28;20031;-81
2022/04/21 03:54:39;;;;;;;10.43;5.72;;;4.90;80.40;;;;;;5103588;28;20076;-79
2022/04/21 03:57:06;;;;;;;8.70;5.72;;;4.90;80.70;;;;;;5109668;28;20016;-79
2022/04/21 03:59:32;;;;;;;8.60;5.38;;;4.90;80.90;;;;;;5108629;28;20028;-78
2022/04/21 04:02:02;;;;;;;9.13;5.75;;;4.90;81.10;;;;;;5106371;28;20020;-78
2022/04/21 04:04:32;;;;;;;8.43;5.80;;;4.90;81.30;;;;;;5104310;28;20023;-78
2022/04/21 04:12:31;;;;;;;9.85;5.30;;;5.00;82.00;;;;;;5101398;28;20148;-78
2022/04/21 04:14:58;;;;;;;8.18;5.43;;;5.00;81.30;;;;;;5097848;28;20403;-79
2022/04/21 04:17:24;;;;;;;8.63;5.40;;;5.00;81.90;;;;;;5101491;28;20131;-78
2022/04/21 04:19:50;;;;;;;10.00;6.25;;;5.10;81.40;;;;;;5101155;28;20036;-78
2022/04/21 04:22:16;;;;;;;10.23;6.53;;;5.10;81.40;;;;;;5108650;28;20028;-78
2022/04/21 04:24:43;;;;;;;7.97;5.65;;;5.20;81.30;;;;;;5109380;28;20020;-77
2022/04/21 04:27:09;;;;;;;7.25;5.05;;;5.20;81.10;;;;;;5104511;28;20028;-80
2022/04/21 04:29:34;;;;;;;8.80;5.30;;;5.20;81.10;;;;;;5104710;28;20031;-79
2022/04/21 04:32:01;;;;;;;11.88;5.75;;;5.20;81.10;;;;;;5117939;28;20109;-80
2022/04/21 04:34:27;;;;;;;11.93;6.30;;;5.20;81.40;;;;;;5117738;28;20037;-81
2022/04/21 04:36:53;;;;;;;8.90;5.60;;;5.20;81.60;;;;;;5117114;28;20038;-80
2022/04/21 04:39:18;;;;;;;7.38;5.35;;;5.20;82.60;;;;;;5106957;28;20032;-79
2022/04/21 04:44:29;;;;;;;11.35;5.53;;;5.20;82.70;;;;;;5096215;28;20035;-79
2022/04/21 04:46:55;;;;;;;10.60;6.10;;;5.20;83.00;;;;;;5094366;28;20157;-79
2022/04/21 04:49:22;;;;;;;9.90;5.47;;;5.30;83.10;;;;;;5110477;22;20051;-80
2022/04/21 04:51:48;;;;;;;8.25;5.65;;;5.30;83.00;;;;;;5102846;28;20088;-79
2022/04/21 04:54:15;;;;;;;9.48;5.80;;;5.40;83.10;;;;;;5102734;28;20043;-80
2022/04/21 04:56:42;;;;;;;8.40;6.05;;;5.40;82.90;;;;;;5103019;28;20024;-81
2022/04/21 04:59:08;;;;;;;7.88;5.00;;;5.50;83.10;;;;;;5084900;28;20150;-81
2022/04/21 05:01:42;;;;;;;9.15;6.35;;;5.50;83.20;;;;;;5088723;28;20031;-82
2022/04/21 05:04:09;;;;;;;9.63;5.68;;;5.50;83.40;;;;;;5114827;28;20028;-83
2022/04/21 05:06:37;;;;;;;7.55;5.90;;;5.50;83.60;;;;;;5082394;28;20028;-80
2022/04/21 05:09:04;;;;;;;8.88;5.40;;;5.60;83.60;;;;;;5080073;28;20061;-79
2022/04/21 05:11:31;;;;;;;9.40;5.28;;;5.60;83.60;;;;;;5099696;28;20107;-79
2022/04/21 05:13:57;;;;;;;8.13;6.07;;;5.70;83.50;;;;;;5081726;28;20016;-79
2022/04/21 05:16:22;;;;;;;10.15;6.10;;;5.90;83.20;;;;;;5100825;28;20028;-81
2022/04/21 05:18:49;;;;;;;10.98;6.18;;;5.90;82.80;;;;;;5101270;28;20043;-80
2022/04/21 05:21:17;;;;;;;9.32;5.80;;;6.00;82.60;;;;;;5113040;28;20005;-79
2022/04/21 05:23:47;;;;;;;9.65;5.75;;;6.00;82.50;;;;;;5094038;28;20043;-81
2022/04/21 05:26:18;;;;;;;9.88;6.28;;;6.20;82.20;;;;;;5088872;28;20496;-80
2022/04/21 05:28:44;;;;;;;8.60;5.43;;;6.20;81.90;;;;;;5082428;28;20024;-79
2022/04/21 05:31:11;;;;;;;12.88;6.60;;;6.30;82.10;;;;;;5084008;28;20020;-80
2022/04/21 05:33:37;;;;;;;10.80;6.05;;;6.40;81.90;;;;;;5079978;28;20040;-80
2022/04/21 05:36:04;;;;;;;11.75;6.25;;;6.40;81.80;;;;;;5079146;28;20028;-79
2022/04/21 05:38:31;;;;;;;10.93;6.43;;;6.40;81.80;;;;;;5087993;28;20035;-79
2022/04/21 05:40:57;;;;;;;8.57;6.60;;;6.50;81.10;;;;;;5088655;28;20124;-81
2022/04/21 05:43:42;;;;;;;10.40;5.95;;;6.50;81.10;;;;;;5088617;28;20025;-80
2022/04/21 05:46:09;;;;;;;11.02;6.93;;;6.50;80.90;;;;;;5071409;28;20049;-79
2022/04/21 05:48:36;;;;;;;10.82;6.50;;;6.60;80.30;;;;;;5083940;28;20031;-81
2022/04/21 05:51:03;;;;;;;11.73;6.65;;;6.70;79.60;;;;;;5071098;28;20017;-80
2022/04/21 05:53:32;;;;;;;9.88;7.22;;;6.80;79.10;;;;;;5095471;28;20028;-80
2022/04/21 05:55:58;;;;;;;11.20;7.07;;;6.90;78.70;;;;;;5099287;28;20103;-81
2022/04/21 05:58:25;;;;;;;14.18;7.45;;;7.00;78.80;;;;;;5103686;28;20024;-81
2022/04/21 06:00:51;;;;;;;14.70;7.80;;;7.20;78.00;;;;;;5106987;28;20039;-79
2022/04/21 06:03:18;;;;;;;11.57;6.93;;;7.20;76.60;;;;;;5105921;28;20419;-82
2022/04/21 06:05:44;;;;;;;9.52;6.85;;;7.30;76.10;;;;;;5108116;28;20102;-80
2022/04/21 06:08:09;;;;;;;8.57;6.93;;;7.50;76.40;;;;;;5107108;28;20028;-80
2022/04/21 06:10:36;;;;;;;9.38;6.55;;;7.50;75.60;;;;;;5090126;28;20024;-80
2022/04/21 06:13:02;;;;;;;9.85;6.57;;;7.50;75.60;;;;;;5107454;28;20027;-81
2022/04/21 06:15:30;;;;;;;7.80;6.05;;;7.60;75.60;;;;;;5106404;28;20449;-81
2022/04/21 06:17:57;;;;;;;8.60;6.20;;;7.80;75.10;;;;;;5086515;28;20040;-81
2022/04/21 06:20:23;;;;;;;7.57;5.78;;;7.90;74.30;;;;;;5083855;28;20032;-81
2022/04/21 06:22:48;;;;;;;9.95;6.03;;;8.10;73.80;;;;;;5102692;28;20026;-79
2022/04/21 06:25:14;;;;;;;10.50;5.82;;;8.50;73.60;;;;;;5101602;28;20114;-81
2022/04/21 06:27:40;;;;;;;7.93;5.72;;;9.80;72.10;;;;;;5081082;28;20116;-77
2022/04/21 06:30:06;;;;;;;8.35;5.63;;;12.50;64.60;;;;;;5080086;28;20021;-81
2022/04/21 06:32:32;;;;;;;6.00;4.32;;;15.30;58.00;;;;;;5084132;28;20032;-79
2022/04/21 06:34:57;;;;;;;8.07;4.38;;;16.90;52.10;;;;;;5096733;28;20020;-77
2022/04/21 06:37:23;;;;;;;8.20;5.03;;;18.40;47.80;;;;;;5096800;28;20021;-78
2022/04/21 06:39:49;;;;;;;8.02;4.65;;;17.70;45.20;;;;;;5078844;28;20021;-79
2022/04/21 06:42:15;;;;;;;7.38;5.43;;;16.30;46.20;;;;;;5096628;28;20096;-80
2022/04/21 06:50:12;;;;;;;8.40;5.80;;;12.30;54.50;;;;;;5086085;28;20075;-82
2022/04/21 06:52:38;;;;;;;7.93;5.28;;;11.80;55.70;;;;;;5085739;28;20025;-80
2022/04/21 06:55:04;;;;;;;6.85;4.93;;;11.40;56.80;;;;;;5105932;28;20084;-81
2022/04/21 06:57:30;;;;;;;8.05;5.85;;;11.20;57.70;;;;;;5087858;28;20048;-79
2022/04/21 06:59:56;;;;;;;9.15;6.68;;;11.00;58.00;;;;;;5105068;28;20050;-81
2022/04/21 07:02:28;;;;;;;14.13;7.35;;;10.60;58.60;;;;;;5087263;28;20476;-80
2022/04/21 07:05:00;;;;;;;9.07;6.18;;;10.20;58.90;;;;;;5086989;28;20066;-81
2022/04/21 07:07:26;;;;;;;6.32;5.20;;;9.90;60.30;;;;;;5104626;28;20020;-80
2022/04/21 07:09:53;;;;;;;8.75;5.65;;;9.70;61.50;;;;;;5087943;28;20036;-80
2022/04/21 07:12:19;;;;;;;8.70;6.45;;;9.60;62.10;;;;;;5116310;28;20017;-81
2022/04/21 07:14:45;;;;;;;10.23;6.80;;;9.50;62.10;;;;;;5105598;28;20025;-81
2022/04/21 07:17:10;;;;;;;12.63;6.95;;;9.40;61.90;;;;;;5087214;28;20032;-80
2022/04/21 07:19:36;;;;;;;8.98;6.45;;;9.40;62.30;;;;;;5106088;28;20032;-80
2022/04/21 07:22:02;;;;;;;13.15;7.75;;;9.50;62.50;;;;;;5109765;28;20210;-80
2022/04/21 07:24:27;;;;;;;12.20;6.97;;;9.50;61.50;;;;;;5107705;28;20016;-79
2022/04/21 07:26:53;;;;;;;9.70;6.50;;;9.40;61.40;;;;;;5105546;28;20028;-83
2022/04/21 07:29:19;;;;;;;10.55;6.85;;;9.50;62.00;;;;;;5086708;28;20032;-81
2022/04/21 07:31:45;;;;;;;12.73;7.13;;;9.50;61.80;;;;;;5107936;28;20120;-80
2022/04/21 07:34:11;;;;;;;9.95;6.82;;;9.50;62.20;;;;;;5108436;28;20035;-80
2022/04/21 07:36:37;;;;;;;9.93;6.57;;;9.60;62.50;;;;;;5090072;28;20028;-80
2022/04/21 07:39:03;;;;;;;12.75;6.15;;;9.60;62.30;;;;;;5088389;28;20055;-84
2022/04/21 07:41:28;;;;;;;8.25;6.53;;;9.70;62.20;;;;;;5088534;28;20025;-82
2022/04/21 07:43:54;;;;;;;8.73;6.68;;;9.80;62.10;;;;;;5106764;28;20073;-82
2022/04/21 07:46:20;;;;;;;12.10;7.70;;;10.00;62.00;;;;;;5105366;28;20020;-80
2022/04/21 07:51:29;;;;;;;14.32;7.97;;;10.20;60.90;;;;;;5104516;28;20515;-81
2022/04/21 07:53:55;;;;;;;11.02;7.55;;;10.20;60.70;;;;;;5103990;28;20024;-80
2022/04/21 07:56:21;;;;;;;10.57;7.43;;;10.30;61.00;;;;;;5094304;28;20032;-81
2022/04/21 07:58:47;;;;;;;8.98;6.60;;;10.40;60.10;;;;;;5082972;28;20052;-80
2022/04/21 08:01:13;;;;;;;11.15;7.40;;;10.40;60.30;;;;;;5084587;28;20044;-80
2022/04/21 08:03:39;;;;;;;14.38;7.15;;;10.40;60.60;;;;;;5084284;28;20078;-80
2022/04/21 08:06:05;;;;;;;10.98;7.68;;;10.60;60.50;;;;;;5084752;28;20075;-80
2022/04/21 08:08:31;;;;;;;11.02;7.00;;;10.70;59.00;;;;;;5064746;28;20032;-79
2022/04/21 08:10:56;;;;;;;9.68;6.85;;;10.70;59.20;;;;;;5084708;28;20028;-80
2022/04/21 08:13:24;;;;;;;10.95;7.60;;;10.80;59.10;;;;;;5084547;28;20059;-80
2022/04/21 08:15:53;;;;;;;10.65;7.65;;;10.90;58.50;;;;;;5087619;28;20012;-80
2022/04/21 08:18:19;;;;;;;11.50;7.80;;;11.10;57.80;;;;;;5091810;28;20038;-80
2022/04/21 08:20:46;;;;;;;14.43;7.40;;;11.20;57.60;;;;;;5068584;28;20071;-80
2022/04/21 08:23:12;;;;;;;11.65;6.82;;;11.30;57.20;;;;;;5070896;28;20112;-81
2022/04/21 08:33:51;;;;;;;11.77;7.30;;;11.60;55.70;;;;;;5082106;28;20175;-80
2022/04/21 08:36:18;;;;;;;10.82;7.47;;;11.70;55.90;;;;;;5083405;28;20024;-81
2022/04/21 08:38:43;;;;;;;11.25;7.25;;;11.80;56.20;;;;;;5082635;28;20047;-81
2022/04/21 08:41:17;;;;;;;11.15;6.93;;;12.00;56.00;;;;;;5087063;28;20029;-79
2022/04/21 08:43:46;;;;;;;10.80;7.10;;;12.40;55.30;;;;;;5089944;28;20024;-81
2022/04/21 08:46:21;;;;;;;11.05;6.63;;;12.50;54.60;;;;;;5090791;28;20282;-79
2022/04/21 08:48:50;;;;;;;9.75;6.70;;;12.50;54.00;;;;;;5071411;28;20036;-79
2022/04/21 08:51:16;;;;;;;13.88;7.75;;;12.70;53.80;;;;;;5090648;28;20081;-80
2022/04/21 08:53:42;;;;;;;11.77;7.95;;;12.90;53.10;;;;;;5105056;28;20234;-78
2022/04/21 08:56:10;;;;;;;13.50;8.30;;;13.00;52.30;;;;;;5101426;28;20030;-78
2022/04/21 08:58:36;;;;;;;12.38;7.82;;;12.90;52.20;;;;;;5091056;28;20020;-80
2022/04/21 09:01:01;;;;;;;12.32;7.40;;;13.10;52.40;;;;;;5073223;28;20088;-81
2022/04/21 09:03:27;;;;;;;11.30;6.80;;;13.10;52.10;;;;;;5090693;28;20088;-79
2022/04/21 09:05:53;;;;;;;9.50;6.93;;;13.30;52.40;;;;;;5069740;28;20039;-80
2022/04/21 09:08:23;;;;;;;9.93;6.85;;;13.50;52.60;;;;;;5068580;28;20462;-83
2022/04/21 09:11:08;;;;;;;10.98;7.10;;;13.50;51.00;;;;;;5086552;28;20059;-82
2022/04/21 09:13:35;;;;;;;10.05;7.32;;;13.60;50.60;;;;;;5068490;28;20047;-80
2022/04/21 09:16:09;;;;;;;10.10;7.75;;;13.70;50.40;;;;;;5067448;28;20025;-81
2022/04/21 09:18:39;;;;;;;11.00;7.05;;;13.70;50.40;;;;;;5082771;28;20024;-81
2022/04/21 09:21:17;;;;;;;9.00;6.78;;;13.80;51.20;;;;;;5084196;28;20115;-82
2022/04/21 09:23:49;;;;;;;9.32;7.10;;;13.80;51.20;;;;;;5093352;28;20020;-82
2022/04/21 09:26:21;;;;;;;11.10;7.57;;;13.90;50.80;;;;;;5095571;28;20027;-82
2022/04/21 09:28:57;;;;;;;11.95;7.55;;;14.10;50.20;;;;;;5102630;28;20028;-84
2022/04/21 09:31:25;;;;;;;10.32;6.85;;;14.10;49.70;;;;;;5085493;28;20064;-80
2022/04/21 09:33:51;;;;;;;14.85;7.55;;;14.10;49.30;;;;;;5102766;28;20442;-80
2022/04/21 09:36:18;;;;;;;11.00;6.82;;;14.10;47.80;;;;;;5103192;28;20036;-81
2022/04/21 09:38:57;;;;;;;11.43;6.93;;;14.00;47.80;;;;;;5083638;28;20036;-82
2022/04/21 09:41:28;;;;;;;11.57;7.13;;;14.20;47.50;;;;;;5084048;28;20042;-79
2022/04/21 09:46:56;;;;;;;10.15;7.70;;;14.60;48.10;;;;;;5104383;28;20402;-81
2022/04/21 09:49:39;;;;;;;13.55;7.40;;;14.70;48.20;;;;;;5101780;28;20028;-80
2022/04/21 09:52:05;;;;;;;11.07;7.88;;;14.60;48.10;;;;;;5085603;28;20081;-80
2022/04/21 09:54:31;;;;;;;10.80;6.97;;;14.60;48.60;;;;;;5100401;28;20032;-82
2022/04/21 09:56:58;;;;;;;8.20;5.63;;;14.80;49.20;;;;;;5082685;28;20035;-87
2022/04/21 09:59:24;;;;;;;13.43;7.90;;;15.20;48.40;;;;;;5081036;28;20016;-80
2022/04/21 10:01:50;;;;;;;9.82;7.20;;;15.40;46.50;;;;;;5063630;28;20389;-82
2022/04/21 10:04:19;;;;;;;11.35;6.95;;;15.40;46.10;;;;;;5080877;28;20028;-80
2022/04/21 10:06:46;;;;;;;8.65;6.90;;;15.40;45.80;;;;;;5081011;28;20044;-81
2022/04/21 10:09:14;;;;;;;8.23;6.15;;;15.40;45.20;;;;;;5080357;28;20051;-81
2022/04/21 10:11:42;;;;;;;9.68;6.72;;;15.30;44.30;;;;;;5081495;28;20020;-83
2022/04/21 10:14:12;;;;;;;11.15;7.13;;;15.40;44.50;;;;;;5081953;28;20023;-85
2022/04/21 10:16:39;;;;;;;8.00;6.40;;;15.40;45.40;;;;;;5061767;28;20034;-81
2022/04/21 10:19:06;;;;;;;8.15;6.40;;;15.60;44.60;;;;;;5083304;28;20020;-83
2022/04/21 10:21:42;;;;;;;9.20;6.38;;;15.70;44.20;;;;;;5084226;28;20072;-83
2022/04/21 10:24:09;;;;;;;8.43;6.40;;;15.80;44.50;;;;;;5098087;28;20012;-82
2022/04/21 10:26:40;;;;;;;8.30;6.45;;;15.80;45.10;;;;;;5093310;28;20051;-81
2022/04/21 10:29:15;;;;;;;9.02;6.03;;;15.90;44.90;;;;;;5083412;28;20028;-79
2022/04/21 10:32:03;;;;;;;11.18;6.78;;;15.90;45.40;;;;;;5085734;28;20020;-80
2022/04/21 10:34:41;;;;;;;7.75;6.25;;;16.00;45.20;;;;;;5085124;28;20020;-81
2022/04/21 10:37:15;;;;;;;7.80;6.22;;;16.20;44.70;;;;;;5087067;28;20017;-81
2022/04/21 10:40:11;;;;;;;10.32;6.60;;;16.10;44.90;;;;;;5067793;28;20025;-81
2022/04/21 10:42:52;;;;;;;7.32;5.82;;;16.10;44.30;;;;;;5087907;28;20024;-80
2022/04/21 10:45:31;;;;;;;10.45;6.18;;;16.20;44.40;;;;;;5085965;28;20040;-81
2022/04/21 10:48:12;;;;;;;9.30;6.68;;;16.30;44.50;;;;;;5084442;28;20036;-80
2022/04/21 10:50:40;;;;;;;10.15;6.57;;;16.20;44.80;;;;;;5077297;28;20039;-78
2022/04/21 10:58:37;;;;;;;7.93;6.03;;;16.80;44.20;;;;;;5100006;28;20038;-82
2022/04/21 11:01:16;;;;;;;8.73;6.85;;;17.00;43.90;;;;;;5105060;28;20107;-80
2022/04/21 11:03:44;;;;;;;8.35;6.72;;;17.00;43.40;;;;;;5114863;28;20039;-80
2022/04/21 11:06:11;;;;;;;8.13;6.65;;;16.70;43.20;;;;;;5103655;28;20016;-81
2022/04/21 11:08:37;;;;;;;11.60;7.00;;;16.40;43.30;;;;;;5106336;28;20097;-80
2022/04/21 11:11:04;;;;;;;12.20;7.15;;;16.30;43.10;;;;;;5104474;28;20032;-80
2022/04/21 11:14:03;;;;;;;10.02;5.90;;;16.10;43.60;;;;;;5083792;28;20031;-80
2022/04/21 11:16:41;;;;;;;9.63;6.35;;;16.10;43.80;;;;;;5084389;28;20063;-79
2022/04/21 11:19:29;;;;;;;9.30;5.50;;;16.30;43.20;;;;;;5083836;28;20024;-80
2022/04/21 11:22:00;;;;;;;8.63;5.53;;;16.60;42.70;;;;;;5085065;28;20016;-80
2022/04/21 11:24:26;;;;;;;10.23;6.30;;;16.70;42.80;;;;;;5102433;28;20020;-80
2022/04/21 11:26:57;;;;;;;7.53;5.60;;;16.60;42.70;;;;;;5096542;28;20024;-81
2022/04/21 11:29:23;;;;;;;6.95;6.25;;;16.50;42.20;;;;;;5109475;28;20035;-81
2022/04/21 11:31:53;;;;;;;8.63;7.18;;;16.50;42.40;;;;;;5099818;28;20021;-80
2022/04/21 11:34:24;;;;;;;8.55;6.28;;;16.50;42.20;;;;;;5100707;28;20054;-80
2022/04/21 11:36:53;;;;;;;8.82;5.55;;;16.40;43.00;;;;;;5118985;28;20015;-83
2022/04/21 11:39:19;;;;;;;7.90;6.20;;;16.50;42.90;;;;;;5100671;28;20023;-81
2022/04/21 11:41:48;;;;;;;8.70;6.00;;;16.50;42.60;;;;;;5118404;28;20111;-81
2022/04/21 11:44:23;;;;;;;6.13;4.57;;;16.50;42.80;;;;;;5118415;28;20005;-81
2022/04/21 11:46:49;;;;;;;7.00;5.32;;;16.70;42.70;;;;;;5117984;28;20023;-82
2022/04/21 11:49:15;;;;;;;8.77;6.20;;;16.90;42.40;;;;;;5116917;28;20032;-81
2022/04/21 11:51:42;;;;;;;9.35;5.70;;;17.30;41.20;;;;;;5113525;28;20020;-81
2022/04/21 11:54:10;;;;;;;6.55;5.80;;;17.20;41.00;;;;;;5109001;28;20027;-82
2022/04/21 11:56:37;;;;;;;6.88;5.53;;;17.20;41.00;;;;;;5110570;28;20490;-80
2022/04/21 11:59:09;;;;;;;7.70;5.32;;;17.00;41.10;;;;;;5112434;28;20026;-81
2022/04/21 12:07:09;;;;;;;7.13;5.65;;;17.20;41.00;;;;;;5101039;28;20030;-80
2022/04/21 12:09:40;;;;;;;6.47;5.10;;;17.20;41.30;;;;;;5098946;28;20047;-80
2022/04/21 12:12:07;;;;;;;10.50;6.13;;;17.00;41.10;;;;;;5099583;28;20020;-82
2022/04/21 12:14:34;;;;;;;8.52;6.03;;;17.20;41.10;;;;;;5102380;28;20055;-81
2022/04/21 12:17:04;;;;;;;8.50;6.10;;;17.00;40.80;;;;;;5102023;28;20028;-81
2022/04/21 12:19:41;;;;;;;9.23;5.70;;;16.70;41.50;;;;;;5107540;28;20043;-81
2022/04/21 12:22:15;;;;;;;9.77;6.47;;;16.70;41.90;;;;;;5102129;28;20036;-81
2022/04/21 12:25:11;;;;;;;6.72;4.90;;;16.90;41.60;;;;;;5101483;28;20028;-81
2022/04/21 12:27:38;;;;;;;11.30;5.32;;;17.10;42.00;;;;;;5100481;28;20038;-80
2022/04/21 12:30:06;;;;;;;5.53;4.43;;;17.20;42.00;;;;;;5102917;28;20365;-80
2022/04/21 12:32:33;;;;;;;8.77;6.05;;;17.40;42.00;;;;;;5101701;28;20042;-80
2022/04/21 12:35:03;;;;;;;8.10;5.68;;;17.50;40.90;;;;;;5081947;28;20024;-81
2022/04/21 12:37:29;;;;;;;8.38;5.70;;;17.30;41.50;;;;;;5100177;28;20023;-80
2022/04/21 12:39:57;;;;;;;6.78;5.47;;;17.10;42.20;;;;;;5098920;28;20103;-81
2022/04/21 12:42:23;;;;;;;5.85;4.53;;;17.10;42.30;;;;;;5102520;28;20044;-79
2022/04/21 12:44:51;;;;;;;6.75;5.20;;;17.40;42.30;;;;;;5107174;28;20071;-78
2022/04/21 12:47:18;;;;;;;5.85;4.68;;;17.50;41.70;;;;;;5105543;28;20020;-79
2022/04/21 12:50:12;;;;;;;9.23;5.43;;;17.60;41.60;;;;;;5103716;28;20385;-80
2022/04/21 12:52:47;;;;;;;5.90;5.30;;;17.90;41.00;;;;;;5104591;28;20105;-79
2022/04/21 12:55:26;;;;;;;8.40;5.47;;;18.10;41.10;;;;;;5100357;28;20032;-80
2022/04/21 12:57:58;;;;;;;7.93;5.80;;;18.20;40.80;;;;;;5098954;28;20099;-80
2022/04/21 13:00:24;;;;;;;6.18;5.57;;;18.10;40.60;;;;;;5098451;28;20027;-81
2022/04/21 13:02:50;;;;;;;6.85;4.75;;;17.90;40.80;;;;;;5097913;28;20044;-81
2022/04/21 13:05:15;;;;;;;5.38;4.88;;;18.00;41.10;;;;;;5097780;28;20028;-80
2022/04/21 13:07:41;;;;;;;8.95;5.72;;;18.00;40.90;;;;;;5096568;28;20103;-80
2022/04/21 13:10:07;;;;;;;7.13;5.53;;;18.30;40.70;;;;;;5080258;28;20022;-79
2022/04/21 13:12:33;;;;;;;12.00;5.85;;;18.20;40.50;;;;;;5098094;28;20107;-80
2022/04/21 13:15:00;;;;;;;6.18;5.57;;;17.90;41.50;;;;;;5078649;28;20407;-82
2022/04/21 13:17:29;;;;;;;7.03;5.18;;;17.80;41.50;;;;;;5079634;28;20059;-79
2022/04/21 13:19:54;;;;;;;5.63;5.10;;;18.00;41.60;;;;;;5097212;28;20534;-80
2022/04/21 13:22:20;;;;;;;6.13;5.35;;;18.10;40.70;;;;;;5098784;28;20040;-81
2022/04/21 13:24:46;;;;;;;7.97;4.90;;;18.10;41.10;;;;;;5080265;28;20482;-80
2022/04/21 13:27:15;;;;;;;7.68;4.68;;;18.00;40.90;;;;;;5096858;28;20028;-80
2022/04/21 13:29:41;;;;;;;5.93;4.35;;;18.00;40.90;;;;;;5096758;28;20521;-80
2022/04/21 13:34:52;;;;;;;5.70;4.55;;;18.00;41.00;;;;;;5097020;28;20023;-80
2022/04/21 13:37:18;;;;;;;4.28;3.88;;;18.30;41.20;;;;;;5096247;28;20464;-80
2022/04/21 13:39:43;;;;;;;5.13;4.63;;;18.70;41.00;;;;;;5096210;28;20020;-79
2022/04/21 13:42:09;;;;;;;7.10;5.47;;;18.90;40.40;;;;;;5078434;28;20369;-80
2022/04/21 13:44:36;;;;;;;6.57;5.97;;;18.80;40.10;;;;;;5096709;28;20055;-81
2022/04/21 13:47:02;;;;;;;8.90;6.75;;;18.60;40.10;;;;;;5098545;28;20020;-79
2022/04/21 13:49:28;;;;;;;12.77;5.97;;;18.40;40.60;;;;;;5098363;28;20115;-80